This is the latest recevied weather packets stored in our database for station/object W7MKM-13. If no packets are shown the sender has not sent any weather packets the latest 10 day(s).
| Time | Temp. | Humidity | Pressure | Rain* | Wind** | Luminosity | Snow |
|---|---|---|---|---|---|---|---|
| 1777892717 | 15° C | 43% | 1011.5 hPa | 0 mm | - | 0 W/m² | - |
| 1777892417 | 15° C | 42% | 1011.4 hPa | 0 mm | - | 0 W/m² | - |
| 1777891517 | 15.56° C | 41% | 1011.4 hPa | 0 mm | - | 0 W/m² | - |
| 1777890017 | 16.11° C | 39% | 1011.6 hPa | 0 mm | - | 0 W/m² | - |
| 1777889717 | 16.11° C | 38% | 1011.7 hPa | 0 mm | - | 0 W/m² | - |
| 1777889117 | 16.11° C | 38% | 1011.9 hPa | 0 mm | - | 0 W/m² | - |
| 1777888217 | 16.11° C | 37% | 1011.9 hPa | 0 mm | - | 0 W/m² | - |
| 1777887617 | 16.11° C | 36% | 1011.7 hPa | 0 mm | - | 0 W/m² | - |
| 1777883717 | 15° C | 38% | 1011.3 hPa | 0 mm | - | 0 W/m² | - |
| 1777881917 | 14.44° C | 42% | 1011 hPa | 0 mm | - | 0 W/m² | - |
| 1777881617 | 13.89° C | 43% | 1011 hPa | 0 mm | - | 0 W/m² | - |
| 1777881017 | 12.22° C | 45% | 1010.4 hPa | 0 mm | - | 0 W/m² | - |
| 1777877117 | 11.67° C | 46% | 1009.2 hPa | 0 mm | - | 0 W/m² | - |
| 1777875918 | 12.22° C | 44% | 1009.4 hPa | 0 mm | - | 0 W/m² | - |
| 1777875617 | 12.22° C | 42% | 1009.4 hPa | 0 mm | - | 0 W/m² | - |
| 1777875317 | 12.78° C | 42% | 1009.4 hPa | 0 mm | - | 0 W/m² | - |
| 1777871415 | 15.56° C | 32% | 1010 hPa | 0 mm | - | 0 W/m² | - |
| 1777869615 | 17.22° C | 28% | 1010.1 hPa | 0 mm | - | 0 W/m² | - |
| 1777869315 | 17.22° C | 28% | 1010.2 hPa | 0 mm | - | 0 W/m² | - |
| 1777867515 | 17.22° C | 29% | 1009.9 hPa | 0 mm | - | 0 W/m² | - |
| 1777866915 | 17.78° C | 28% | 1009.9 hPa | 0 mm | - | 0 W/m² | - |
| 1777866615 | 17.78° C | 29% | 1009.6 hPa | 0 mm | - | 0 W/m² | - |
| 1777857915 | 22.78° C | 16% | 1009.9 hPa | 0 mm | - | 66 W/m² | - |
| 1777856416 | 23.33° C | 14% | 1010.1 hPa | 0 mm | - | 105 W/m² | - |
| 1777855515 | 23.33° C | 14% | 1010.3 hPa | 0 mm | - | 135 W/m² | - |
* Rain latest hour (hover to see other rain measurements)
** Current wind speed in m/s (hover to see current wind gust speed)